Pikeville, Tennessee
Current Conditions -  °F | °C
As of 1:53 PM on Thursday 23 Oct 2014 (Local Time) from KCSV Reporting Station
Clear Clear  
Wind Chill: 63°   Ceiling: Unl
Heat Index: 63°   Visibility: 10mi
Dew Point: 39°   Wind: 3mph
Humidity: 41%   Direction: NA
Pressure: 30.12"   Gusts: NA
Location:  35.61°N, 85.19°W
Report Text: KCSV 231853Z AUTO VRB03KT 10SM CLR 17/04 A3012 RMK AO2 SLP196 T01720039
Loading
Personal Weather Stations






























Interactive Weather Map
Tropical Storm Tracking
New forecast layout! Learn more

10-Day Weather Forecast

Advertisements
Track Severe Weather on mobile